sensor_id;sensor_type;location;lat;lon;timestamp;temperature;humidity
69162;DHT22;56269;51.738;21.652;2023-06-10T00:00:45;19.24;75.05
69162;DHT22;56269;51.738;21.652;2023-06-10T00:03:31;19.27;74.88
69162;DHT22;56269;51.738;21.652;2023-06-10T00:05:58;19.37;74.45
69162;DHT22;56269;51.738;21.652;2023-06-10T00:08:24;19.27;74.80
69162;DHT22;56269;51.738;21.652;2023-06-10T00:10:51;19.23;75.23
69162;DHT22;56269;51.738;21.652;2023-06-10T00:13:17;19.18;75.16
69162;DHT22;56269;51.738;21.652;2023-06-10T00:15:43;19.24;74.93
69162;DHT22;56269;51.738;21.652;2023-06-10T00:18:11;19.13;75.56
69162;DHT22;56269;51.738;21.652;2023-06-10T00:20:37;19.06;75.65
69162;DHT22;56269;51.738;21.652;2023-06-10T00:23:05;19.22;75.23
69162;DHT22;56269;51.738;21.652;2023-06-10T00:25:34;19.12;75.62
69162;DHT22;56269;51.738;21.652;2023-06-10T00:28:00;19.10;75.69
69162;DHT22;56269;51.738;21.652;2023-06-10T00:30:26;19.10;75.97
69162;DHT22;56269;51.738;21.652;2023-06-10T00:32:53;19.03;76.06
69162;DHT22;56269;51.738;21.652;2023-06-10T00:35:19;18.95;76.34
69162;DHT22;56269;51.738;21.652;2023-06-10T00:37:45;18.96;76.23
69162;DHT22;56269;51.738;21.652;2023-06-10T00:40:11;18.85;76.37
69162;DHT22;56269;51.738;21.652;2023-06-10T00:42:38;18.88;76.17
69162;DHT22;56269;51.738;21.652;2023-06-10T00:45:05;18.85;76.02
69162;DHT22;56269;51.738;21.652;2023-06-10T00:47:31;18.91;76.16
69162;DHT22;56269;51.738;21.652;2023-06-10T00:49:57;18.84;75.96
69162;DHT22;56269;51.738;21.652;2023-06-10T00:52:27;18.79;76.14
69162;DHT22;56269;51.738;21.652;2023-06-10T00:54:54;18.79;76.15
69162;DHT22;56269;51.738;21.652;2023-06-10T00:57:20;18.88;76.02
69162;DHT22;56269;51.738;21.652;2023-06-10T00:59:48;18.79;76.63
69162;DHT22;56269;51.738;21.652;2023-06-10T01:02:15;18.72;75.96
69162;DHT22;56269;51.738;21.652;2023-06-10T01:04:42;18.81;75.40
69162;DHT22;56269;51.738;21.652;2023-06-10T01:07:24;18.68;75.56
69162;DHT22;56269;51.738;21.652;2023-06-10T01:10:11;18.73;75.52
69162;DHT22;56269;51.738;21.652;2023-06-10T01:15:04;18.57;75.96
69162;DHT22;56269;51.738;21.652;2023-06-10T01:17:31;18.57;75.34
69162;DHT22;56269;51.738;21.652;2023-06-10T01:19:57;18.54;75.49
69162;DHT22;56269;51.738;21.652;2023-06-10T01:22:26;18.41;75.92
69162;DHT22;56269;51.738;21.652;2023-06-10T01:24:58;18.41;76.16
69162;DHT22;56269;51.738;21.652;2023-06-10T01:27:29;18.33;76.17
69162;DHT22;56269;51.738;21.652;2023-06-10T01:30:04;18.38;76.09
69162;DHT22;56269;51.738;21.652;2023-06-10T01:32:40;18.28;75.74
69162;DHT22;56269;51.738;21.652;2023-06-10T01:35:09;18.23;75.85
69162;DHT22;56269;51.738;21.652;2023-06-10T01:37:38;18.21;75.79
69162;DHT22;56269;51.738;21.652;2023-06-10T01:40:06;18.17;76.01
69162;DHT22;56269;51.738;21.652;2023-06-10T01:42:33;18.08;76.47
69162;DHT22;56269;51.738;21.652;2023-06-10T01:44:59;17.98;76.97
69162;DHT22;56269;51.738;21.652;2023-06-10T01:47:25;17.86;77.78
69162;DHT22;56269;51.738;21.652;2023-06-10T01:49:51;17.75;78.28
69162;DHT22;56269;51.738;21.652;2023-06-10T01:52:18;17.70;78.25
69162;DHT22;56269;51.738;21.652;2023-06-10T01:54:44;17.61;78.75
69162;DHT22;56269;51.738;21.652;2023-06-10T01:57:10;17.59;78.89
69162;DHT22;56269;51.738;21.652;2023-06-10T01:59:36;17.55;79.06
69162;DHT22;56269;51.738;21.652;2023-06-10T02:02:04;17.59;78.92
69162;DHT22;56269;51.738;21.652;2023-06-10T02:04:31;17.46;79.47
69162;DHT22;56269;51.738;21.652;2023-06-10T02:06:57;17.50;79.34
69162;DHT22;56269;51.738;21.652;2023-06-10T02:09:23;17.45;79.52
69162;DHT22;56269;51.738;21.652;2023-06-10T02:11:50;17.42;79.76
69162;DHT22;56269;51.738;21.652;2023-06-10T02:14:18;17.32;79.56
69162;DHT22;56269;51.738;21.652;2023-06-10T02:16:44;17.22;81.34
69162;DHT22;56269;51.738;21.652;2023-06-10T02:19:13;17.16;81.27
69162;DHT22;56269;51.738;21.652;2023-06-10T02:21:39;17.07;81.80
69162;DHT22;56269;51.738;21.652;2023-06-10T02:24:05;17.05;80.74
69162;DHT22;56269;51.738;21.652;2023-06-10T02:26:32;17.02;81.27
69162;DHT22;56269;51.738;21.652;2023-06-10T02:28:58;17.02;81.04
69162;DHT22;56269;51.738;21.652;2023-06-10T02:31:24;17.08;81.34
69162;DHT22;56269;51.738;21.652;2023-06-10T02:33:51;17.02;82.15
69162;DHT22;56269;51.738;21.652;2023-06-10T02:36:17;16.95;81.74
69162;DHT22;56269;51.738;21.652;2023-06-10T02:38:43;16.88;82.14
69162;DHT22;56269;51.738;21.652;2023-06-10T02:41:09;16.85;82.07
69162;DHT22;56269;51.738;21.652;2023-06-10T02:43:35;16.80;84.00
69162;DHT22;56269;51.738;21.652;2023-06-10T02:46:02;16.80;82.21
69162;DHT22;56269;51.738;21.652;2023-06-10T02:48:28;16.77;82.82
69162;DHT22;56269;51.738;21.652;2023-06-10T02:50:56;16.83;82.24
69162;DHT22;56269;51.738;21.652;2023-06-10T02:53:22;16.85;81.80
69162;DHT22;56269;51.738;21.652;2023-06-10T02:55:49;16.87;82.47
69162;DHT22;56269;51.738;21.652;2023-06-10T02:58:15;16.84;82.98
69162;DHT22;56269;51.738;21.652;2023-06-10T03:00:42;16.80;83.61
69162;DHT22;56269;51.738;21.652;2023-06-10T03:03:08;16.77;83.81
69162;DHT22;56269;51.738;21.652;2023-06-10T03:05:36;16.81;82.53
69162;DHT22;56269;51.738;21.652;2023-06-10T03:08:03;16.83;82.72
69162;DHT22;56269;51.738;21.652;2023-06-10T03:10:29;16.84;83.09
69162;DHT22;56269;51.738;21.652;2023-06-10T03:12:57;16.91;82.54
69162;DHT22;56269;51.738;21.652;2023-06-10T03:15:23;16.95;82.28
69162;DHT22;56269;51.738;21.652;2023-06-10T03:17:50;17.08;82.16
69162;DHT22;56269;51.738;21.652;2023-06-10T03:20:17;17.11;81.88
69162;DHT22;56269;51.738;21.652;2023-06-10T03:22:43;17.14;81.78
69162;DHT22;56269;51.738;21.652;2023-06-10T03:25:10;17.22;81.85
69162;DHT22;56269;51.738;21.652;2023-06-10T03:27:41;17.31;81.49
69162;DHT22;56269;51.738;21.652;2023-06-10T03:30:07;17.38;81.78
69162;DHT22;56269;51.738;21.652;2023-06-10T03:32:34;17.40;81.46
69162;DHT22;56269;51.738;21.652;2023-06-10T03:35:01;17.50;81.19
69162;DHT22;56269;51.738;21.652;2023-06-10T03:37:27;17.66;80.34
69162;DHT22;56269;51.738;21.652;2023-06-10T03:39:53;17.77;80.62
69162;DHT22;56269;51.738;21.652;2023-06-10T03:42:20;18.11;79.61
69162;DHT22;56269;51.738;21.652;2023-06-10T03:44:46;18.27;78.47
69162;DHT22;56269;51.738;21.652;2023-06-10T03:47:12;18.59;77.26
69162;DHT22;56269;51.738;21.652;2023-06-10T03:49:39;18.64;77.22
69162;DHT22;56269;51.738;21.652;2023-06-10T03:52:06;19.26;75.72
69162;DHT22;56269;51.738;21.652;2023-06-10T03:54:33;19.10;76.09
69162;DHT22;56269;51.738;21.652;2023-06-10T03:57:00;18.78;76.10
69162;DHT22;56269;51.738;21.652;2023-06-10T03:59:27;18.55;77.27
69162;DHT22;56269;51.738;21.652;2023-06-10T04:01:54;18.34;78.32
69162;DHT22;56269;51.738;21.652;2023-06-10T04:04:20;18.23;77.83
69162;DHT22;56269;51.738;21.652;2023-06-10T04:06:46;17.90;78.80
69162;DHT22;56269;51.738;21.652;2023-06-10T04:09:14;17.79;79.41
69162;DHT22;56269;51.738;21.652;2023-06-10T04:11:40;17.67;80.23
69162;DHT22;56269;51.738;21.652;2023-06-10T04:14:06;17.75;80.42
69162;DHT22;56269;51.738;21.652;2023-06-10T04:16:33;17.75;79.85
69162;DHT22;56269;51.738;21.652;2023-06-10T04:18:59;17.67;79.79
69162;DHT22;56269;51.738;21.652;2023-06-10T04:21:26;17.62;79.54
69162;DHT22;56269;51.738;21.652;2023-06-10T04:23:53;17.57;79.43
69162;DHT22;56269;51.738;21.652;2023-06-10T04:26:19;17.70;80.13
69162;DHT22;56269;51.738;21.652;2023-06-10T04:28:46;17.62;79.56
69162;DHT22;56269;51.738;21.652;2023-06-10T04:31:12;17.72;79.88
69162;DHT22;56269;51.738;21.652;2023-06-10T04:33:38;17.69;79.93
69162;DHT22;56269;51.738;21.652;2023-06-10T04:36:07;17.76;79.52
69162;DHT22;56269;51.738;21.652;2023-06-10T04:38:33;17.72;79.82
69162;DHT22;56269;51.738;21.652;2023-06-10T04:40:59;17.55;79.60
69162;DHT22;56269;51.738;21.652;2023-06-10T04:43:25;17.61;79.70
69162;DHT22;56269;51.738;21.652;2023-06-10T04:45:55;17.50;80.08
69162;DHT22;56269;51.738;21.652;2023-06-10T04:48:23;17.73;79.15
69162;DHT22;56269;51.738;21.652;2023-06-10T04:50:50;17.87;78.76
69162;DHT22;56269;51.738;21.652;2023-06-10T04:53:16;17.73;79.65
69162;DHT22;56269;51.738;21.652;2023-06-10T04:55:42;17.66;79.18
69162;DHT22;56269;51.738;21.652;2023-06-10T04:58:10;17.96;79.31
69162;DHT22;56269;51.738;21.652;2023-06-10T05:00:36;18.33;78.82
69162;DHT22;56269;51.738;21.652;2023-06-10T05:03:02;18.62;77.79
69162;DHT22;56269;51.738;21.652;2023-06-10T05:05:28;18.34;78.03
69162;DHT22;56269;51.738;21.652;2023-06-10T05:07:55;18.76;76.75
69162;DHT22;56269;51.738;21.652;2023-06-10T05:10:21;18.95;77.31
69162;DHT22;56269;51.738;21.652;2023-06-10T05:12:47;18.94;76.60
69162;DHT22;56269;51.738;21.652;2023-06-10T05:15:13;18.58;77.74
69162;DHT22;56269;51.738;21.652;2023-06-10T05:17:39;18.23;79.19
69162;DHT22;56269;51.738;21.652;2023-06-10T05:20:06;18.18;79.08
69162;DHT22;56269;51.738;21.652;2023-06-10T05:22:32;18.10;79.09
69162;DHT22;56269;51.738;21.652;2023-06-10T05:24:58;18.28;79.18
69162;DHT22;56269;51.738;21.652;2023-06-10T05:27:25;18.26;79.89
69162;DHT22;56269;51.738;21.652;2023-06-10T05:29:51;18.35;79.97
69162;DHT22;56269;51.738;21.652;2023-06-10T05:32:18;18.34;79.64
69162;DHT22;56269;51.738;21.652;2023-06-10T05:34:44;18.57;79.41
69162;DHT22;56269;51.738;21.652;2023-06-10T05:37:11;18.61;79.24
69162;DHT22;56269;51.738;21.652;2023-06-10T05:39:37;18.57;79.21
69162;DHT22;56269;51.738;21.652;2023-06-10T05:42:05;18.62;79.93
69162;DHT22;56269;51.738;21.652;2023-06-10T05:44:32;18.44;79.53
69162;DHT22;56269;51.738;21.652;2023-06-10T05:46:59;18.45;79.01
69162;DHT22;56269;51.738;21.652;2023-06-10T05:49:25;18.68;79.24
69162;DHT22;56269;51.738;21.652;2023-06-10T05:51:51;18.72;77.95
69162;DHT22;56269;51.738;21.652;2023-06-10T05:54:22;18.75;78.07
69162;DHT22;56269;51.738;21.652;2023-06-10T05:56:48;18.81;77.99
69162;DHT22;56269;51.738;21.652;2023-06-10T05:59:14;18.99;78.26
69162;DHT22;56269;51.738;21.652;2023-06-10T06:01:40;19.00;78.56
69162;DHT22;56269;51.738;21.652;2023-06-10T06:04:06;19.40;77.25
69162;DHT22;56269;51.738;21.652;2023-06-10T06:06:34;19.37;77.77
69162;DHT22;56269;51.738;21.652;2023-06-10T06:09:00;19.37;76.93
69162;DHT22;56269;51.738;21.652;2023-06-10T06:11:27;19.37;76.67
69162;DHT22;56269;51.738;21.652;2023-06-10T06:13:53;19.81;75.52
69162;DHT22;56269;51.738;21.652;2023-06-10T06:16:19;19.74;76.35
69162;DHT22;56269;51.738;21.652;2023-06-10T06:18:45;19.56;76.32
69162;DHT22;56269;51.738;21.652;2023-06-10T06:21:12;19.97;75.52
69162;DHT22;56269;51.738;21.652;2023-06-10T06:23:38;20.08;75.26
69162;DHT22;56269;51.738;21.652;2023-06-10T06:26:04;20.50;74.21
69162;DHT22;56269;51.738;21.652;2023-06-10T06:28:30;21.03;73.00
69162;DHT22;56269;51.738;21.652;2023-06-10T06:30:57;20.70;73.53
69162;DHT22;56269;51.738;21.652;2023-06-10T06:33:23;20.93;72.03
69162;DHT22;56269;51.738;21.652;2023-06-10T06:35:49;20.73;71.98
69162;DHT22;56269;51.738;21.652;2023-06-10T06:38:15;21.24;71.93
69162;DHT22;56269;51.738;21.652;2023-06-10T06:40:42;20.72;72.78
69162;DHT22;56269;51.738;21.652;2023-06-10T06:43:08;21.24;71.59
69162;DHT22;56269;51.738;21.652;2023-06-10T06:45:34;22.39;68.82
69162;DHT22;56269;51.738;21.652;2023-06-10T06:48:01;22.37;68.82
69162;DHT22;56269;51.738;21.652;2023-06-10T06:50:28;23.00;67.19
69162;DHT22;56269;51.738;21.652;2023-06-10T06:52:54;23.82;64.85
69162;DHT22;56269;51.738;21.652;2023-06-10T06:55:20;23.52;67.75
69162;DHT22;56269;51.738;21.652;2023-06-10T06:57:46;23.25;65.87
69162;DHT22;56269;51.738;21.652;2023-06-10T07:00:13;22.98;68.15
69162;DHT22;56269;51.738;21.652;2023-06-10T07:02:39;22.91;67.56
69162;DHT22;56269;51.738;21.652;2023-06-10T07:05:06;23.04;67.69
69162;DHT22;56269;51.738;21.652;2023-06-10T07:07:32;23.85;64.95
69162;DHT22;56269;51.738;21.652;2023-06-10T07:09:59;23.12;67.31
69162;DHT22;56269;51.738;21.652;2023-06-10T07:12:25;22.53;68.94
69162;DHT22;56269;51.738;21.652;2023-06-10T07:14:51;22.95;67.88
69162;DHT22;56269;51.738;21.652;2023-06-10T07:17:17;23.12;68.36
69162;DHT22;56269;51.738;21.652;2023-06-10T07:19:45;23.77;66.16
69162;DHT22;56269;51.738;21.652;2023-06-10T07:22:11;23.87;65.35
69162;DHT22;56269;51.738;21.652;2023-06-10T07:24:37;22.81;68.36
69162;DHT22;56269;51.738;21.652;2023-06-10T07:27:04;22.91;68.65
69162;DHT22;56269;51.738;21.652;2023-06-10T07:29:31;23.10;68.55
69162;DHT22;56269;51.738;21.652;2023-06-10T07:31:57;22.97;68.84
69162;DHT22;56269;51.738;21.652;2023-06-10T07:34:24;24.37;67.36
69162;DHT22;56269;51.738;21.652;2023-06-10T07:36:50;24.57;67.25
69162;DHT22;56269;51.738;21.652;2023-06-10T07:39:16;24.57;64.95
69162;DHT22;56269;51.738;21.652;2023-06-10T07:41:42;24.27;67.34
69162;DHT22;56269;51.738;21.652;2023-06-10T07:44:09;23.52;66.00
69162;DHT22;56269;51.738;21.652;2023-06-10T07:46:35;23.17;67.76
69162;DHT22;56269;51.738;21.652;2023-06-10T07:49:01;23.63;66.94
69162;DHT22;56269;51.738;21.652;2023-06-10T07:51:28;24.23;65.90
69162;DHT22;56269;51.738;21.652;2023-06-10T07:53:54;24.36;64.04
69162;DHT22;56269;51.738;21.652;2023-06-10T07:56:22;24.02;64.91
69162;DHT22;56269;51.738;21.652;2023-06-10T07:58:48;24.26;65.10
69162;DHT22;56269;51.738;21.652;2023-06-10T08:01:14;23.89;65.95
69162;DHT22;56269;51.738;21.652;2023-06-10T08:03:42;24.17;65.61
69162;DHT22;56269;51.738;21.652;2023-06-10T08:06:08;23.55;65.14
69162;DHT22;56269;51.738;21.652;2023-06-10T08:08:37;23.90;64.53
69162;DHT22;56269;51.738;21.652;2023-06-10T08:11:08;23.73;65.88
69162;DHT22;56269;51.738;21.652;2023-06-10T08:13:35;23.48;66.52
69162;DHT22;56269;51.738;21.652;2023-06-10T08:16:01;23.75;66.44
69162;DHT22;56269;51.738;21.652;2023-06-10T08:18:27;24.13;67.09
69162;DHT22;56269;51.738;21.652;2023-06-10T08:20:54;24.20;64.77
69162;DHT22;56269;51.738;21.652;2023-06-10T08:23:20;24.44;64.18
69162;DHT22;56269;51.738;21.652;2023-06-10T08:25:46;24.41;63.11
69162;DHT22;56269;51.738;21.652;2023-06-10T08:28:13;23.75;65.46
69162;DHT22;56269;51.738;21.652;2023-06-10T08:30:39;23.93;66.40
69162;DHT22;56269;51.738;21.652;2023-06-10T08:33:05;23.85;65.56
69162;DHT22;56269;51.738;21.652;2023-06-10T08:35:31;23.77;65.52
69162;DHT22;56269;51.738;21.652;2023-06-10T08:37:57;24.26;64.71
69162;DHT22;56269;51.738;21.652;2023-06-10T08:40:23;24.50;64.34
69162;DHT22;56269;51.738;21.652;2023-06-10T08:42:54;24.94;63.17
69162;DHT22;56269;51.738;21.652;2023-06-10T08:45:24;25.87;61.55
69162;DHT22;56269;51.738;21.652;2023-06-10T08:47:54;26.02;59.17
69162;DHT22;56269;51.738;21.652;2023-06-10T08:50:23;25.01;61.80
69162;DHT22;56269;51.738;21.652;2023-06-10T08:52:52;25.91;61.17
69162;DHT22;56269;51.738;21.652;2023-06-10T08:55:25;26.22;59.91
69162;DHT22;56269;51.738;21.652;2023-06-10T08:57:53;26.16;58.56
69162;DHT22;56269;51.738;21.652;2023-06-10T09:00:19;26.45;58.56
69162;DHT22;56269;51.738;21.652;2023-06-10T09:02:46;26.53;57.98
69162;DHT22;56269;51.738;21.652;2023-06-10T09:05:13;26.41;57.62
69162;DHT22;56269;51.738;21.652;2023-06-10T09:07:39;26.55;58.92
69162;DHT22;56269;51.738;21.652;2023-06-10T09:10:06;27.26;57.60
69162;DHT22;56269;51.738;21.652;2023-06-10T09:12:34;27.10;57.39
69162;DHT22;56269;51.738;21.652;2023-06-10T09:15:01;25.77;58.50
69162;DHT22;56269;51.738;21.652;2023-06-10T09:17:28;25.08;61.48
69162;DHT22;56269;51.738;21.652;2023-06-10T09:19:54;24.10;63.98
69162;DHT22;56269;51.738;21.652;2023-06-10T09:22:23;24.87;62.40
69162;DHT22;56269;51.738;21.652;2023-06-10T09:24:50;24.74;63.26
69162;DHT22;56269;51.738;21.652;2023-06-10T09:27:16;24.34;65.03
69162;DHT22;56269;51.738;21.652;2023-06-10T09:29:47;25.30;61.53
69162;DHT22;56269;51.738;21.652;2023-06-10T09:32:14;25.84;61.18
69162;DHT22;56269;51.738;21.652;2023-06-10T09:34:41;24.98;61.61
69162;DHT22;56269;51.738;21.652;2023-06-10T09:37:08;23.62;66.30
69162;DHT22;56269;51.738;21.652;2023-06-10T09:39:38;24.87;62.45
69162;DHT22;56269;51.738;21.652;2023-06-10T09:42:16;25.83;60.63
69162;DHT22;56269;51.738;21.652;2023-06-10T09:44:49;25.91;59.12
69162;DHT22;56269;51.738;21.652;2023-06-10T09:47:22;26.22;58.16
69162;DHT22;56269;51.738;21.652;2023-06-10T09:49:50;26.28;57.78
69162;DHT22;56269;51.738;21.652;2023-06-10T09:52:27;27.46;57.06
69162;DHT22;56269;51.738;21.652;2023-06-10T09:54:58;26.65;54.72
69162;DHT22;56269;51.738;21.652;2023-06-10T09:57:25;27.10;55.07
69162;DHT22;56269;51.738;21.652;2023-06-10T09:59:55;27.84;54.58
69162;DHT22;56269;51.738;21.652;2023-06-10T10:02:21;26.75;56.30
69162;DHT22;56269;51.738;21.652;2023-06-10T10:04:47;26.76;53.25
69162;DHT22;56269;51.738;21.652;2023-06-10T10:07:14;26.34;53.75
69162;DHT22;56269;51.738;21.652;2023-06-10T10:09:41;26.07;55.37
69162;DHT22;56269;51.738;21.652;2023-06-10T10:12:12;26.30;54.67
69162;DHT22;56269;51.738;21.652;2023-06-10T10:14:39;26.35;54.57
69162;DHT22;56269;51.738;21.652;2023-06-10T10:17:10;26.90;54.33
69162;DHT22;56269;51.738;21.652;2023-06-10T10:19:52;27.16;52.60
69162;DHT22;56269;51.738;21.652;2023-06-10T10:22:26;26.65;53.83
69162;DHT22;56269;51.738;21.652;2023-06-10T10:24:57;26.86;54.54
69162;DHT22;56269;51.738;21.652;2023-06-10T10:27:33;27.12;54.52
69162;DHT22;56269;51.738;21.652;2023-06-10T10:29:59;26.79;54.62
69162;DHT22;56269;51.738;21.652;2023-06-10T10:32:40;26.44;56.10
69162;DHT22;56269;51.738;21.652;2023-06-10T10:35:17;25.71;58.22
69162;DHT22;56269;51.738;21.652;2023-06-10T10:37:44;25.90;59.43
69162;DHT22;56269;51.738;21.652;2023-06-10T10:40:11;26.14;56.73
69162;DHT22;56269;51.738;21.652;2023-06-10T10:42:39;25.89;57.01
69162;DHT22;56269;51.738;21.652;2023-06-10T10:45:06;25.46;57.46
69162;DHT22;56269;51.738;21.652;2023-06-10T10:47:34;25.04;58.04
69162;DHT22;56269;51.738;21.652;2023-06-10T10:50:13;25.08;57.60
69162;DHT22;56269;51.738;21.652;2023-06-10T10:52:52;25.19;57.87
69162;DHT22;56269;51.738;21.652;2023-06-10T10:55:19;25.25;56.96
69162;DHT22;56269;51.738;21.652;2023-06-10T10:57:59;24.75;57.22
69162;DHT22;56269;51.738;21.652;2023-06-10T11:00:41;25.11;56.84
69162;DHT22;56269;51.738;21.652;2023-06-10T11:03:16;25.54;57.89
69162;DHT22;56269;51.738;21.652;2023-06-10T11:05:46;25.54;57.45
69162;DHT22;56269;51.738;21.652;2023-06-10T11:11:22;24.89;58.72
69162;DHT22;56269;51.738;21.652;2023-06-10T11:16:28;24.17;60.76
69162;DHT22;56269;51.738;21.652;2023-06-10T11:18:55;24.12;60.78
69162;DHT22;56269;51.738;21.652;2023-06-10T11:21:24;24.06;61.44
69162;DHT22;56269;51.738;21.652;2023-06-10T11:23:51;24.16;61.25
69162;DHT22;56269;51.738;21.652;2023-06-10T11:29:01;24.17;60.81
69162;DHT22;56269;51.738;21.652;2023-06-10T11:31:33;23.77;59.76
69162;DHT22;56269;51.738;21.652;2023-06-10T11:34:02;24.51;57.30
69162;DHT22;56269;51.738;21.652;2023-06-10T11:36:37;24.69;56.58
69162;DHT22;56269;51.738;21.652;2023-06-10T11:39:06;25.07;56.42
69162;DHT22;56269;51.738;21.652;2023-06-10T11:41:34;25.50;56.82
69162;DHT22;56269;51.738;21.652;2023-06-10T11:46:31;26.99;54.01
69162;DHT22;56269;51.738;21.652;2023-06-10T11:48:58;26.82;52.34
69162;DHT22;56269;51.738;21.652;2023-06-10T11:51:26;26.25;52.76
69162;DHT22;56269;51.738;21.652;2023-06-10T11:53:54;26.69;53.56
69162;DHT22;56269;51.738;21.652;2023-06-10T11:56:24;26.31;53.22
69162;DHT22;56269;51.738;21.652;2023-06-10T11:58:59;26.25;52.64
69162;DHT22;56269;51.738;21.652;2023-06-10T12:01:34;25.56;53.61
69162;DHT22;56269;51.738;21.652;2023-06-10T12:04:06;25.07;55.47
69162;DHT22;56269;51.738;21.652;2023-06-10T12:06:43;25.04;56.10
69162;DHT22;56269;51.738;21.652;2023-06-10T12:09:21;25.46;56.11
69162;DHT22;56269;51.738;21.652;2023-06-10T12:12:02;25.05;56.44
69162;DHT22;56269;51.738;21.652;2023-06-10T12:14:57;24.79;57.37
69162;DHT22;56269;51.738;21.652;2023-06-10T12:19:56;25.46;57.60
69162;DHT22;56269;51.738;21.652;2023-06-10T12:22:23;26.53;56.47
69162;DHT22;56269;51.738;21.652;2023-06-10T12:25:02;25.86;55.01
69162;DHT22;56269;51.738;21.652;2023-06-10T12:27:30;26.11;53.75
69162;DHT22;56269;51.738;21.652;2023-06-10T12:29:58;26.08;53.42
69162;DHT22;56269;51.738;21.652;2023-06-10T12:35:05;26.05;55.00
69162;DHT22;56269;51.738;21.652;2023-06-10T12:37:32;26.18;54.91
69162;DHT22;56269;51.738;21.652;2023-06-10T12:40:01;26.16;51.89
69162;DHT22;56269;51.738;21.652;2023-06-10T12:42:29;26.58;54.23
69162;DHT22;56269;51.738;21.652;2023-06-10T12:44:57;26.55;53.54
69162;DHT22;56269;51.738;21.652;2023-06-10T12:47:36;26.52;53.22
69162;DHT22;56269;51.738;21.652;2023-06-10T12:50:06;26.40;53.00
69162;DHT22;56269;51.738;21.652;2023-06-10T12:52:32;26.11;53.27
69162;DHT22;56269;51.738;21.652;2023-06-10T12:54:59;25.81;54.20
69162;DHT22;56269;51.738;21.652;2023-06-10T12:57:26;25.05;56.05
69162;DHT22;56269;51.738;21.652;2023-06-10T12:59:55;25.22;56.54
69162;DHT22;56269;51.738;21.652;2023-06-10T13:02:28;25.49;56.09
69162;DHT22;56269;51.738;21.652;2023-06-10T13:04:55;25.69;56.34
69162;DHT22;56269;51.738;21.652;2023-06-10T13:07:21;26.20;55.89
69162;DHT22;56269;51.738;21.652;2023-06-10T13:09:48;25.89;54.74
69162;DHT22;56269;51.738;21.652;2023-06-10T13:12:15;25.89;55.69
69162;DHT22;56269;51.738;21.652;2023-06-10T13:14:43;25.33;56.39
69162;DHT22;56269;51.738;21.652;2023-06-10T13:17:10;24.57;58.59
69162;DHT22;56269;51.738;21.652;2023-06-10T13:19:36;24.26;58.77
69162;DHT22;56269;51.738;21.652;2023-06-10T13:22:02;23.62;60.69
69162;DHT22;56269;51.738;21.652;2023-06-10T13:24:29;23.61;61.46
69162;DHT22;56269;51.738;21.652;2023-06-10T13:26:55;23.65;61.43
69162;DHT22;56269;51.738;21.652;2023-06-10T13:29:22;24.06;60.27
69162;DHT22;56269;51.738;21.652;2023-06-10T13:31:48;25.14;57.36
69162;DHT22;56269;51.738;21.652;2023-06-10T13:34:15;25.80;55.86
69162;DHT22;56269;51.738;21.652;2023-06-10T13:36:41;24.92;58.20
69162;DHT22;56269;51.738;21.652;2023-06-10T13:39:07;24.51;58.54
69162;DHT22;56269;51.738;21.652;2023-06-10T13:41:33;24.61;58.43
69162;DHT22;56269;51.738;21.652;2023-06-10T13:44:00;24.89;57.01
69162;DHT22;56269;51.738;21.652;2023-06-10T13:46:26;25.71;57.29
69162;DHT22;56269;51.738;21.652;2023-06-10T13:48:52;25.11;55.66
69162;DHT22;56269;51.738;21.652;2023-06-10T13:51:18;25.54;55.39
69162;DHT22;56269;51.738;21.652;2023-06-10T13:53:45;25.49;56.21
69162;DHT22;56269;51.738;21.652;2023-06-10T13:56:11;25.16;56.80
69162;DHT22;56269;51.738;21.652;2023-06-10T13:58:37;24.95;58.23
69162;DHT22;56269;51.738;21.652;2023-06-10T14:01:05;25.11;58.50
69162;DHT22;56269;51.738;21.652;2023-06-10T14:03:32;24.78;58.73
69162;DHT22;56269;51.738;21.652;2023-06-10T14:05:58;24.81;58.78
69162;DHT22;56269;51.738;21.652;2023-06-10T14:08:25;24.17;58.78
69162;DHT22;56269;51.738;21.652;2023-06-10T14:10:51;24.71;59.58
69162;DHT22;56269;51.738;21.652;2023-06-10T14:13:17;25.33;58.90
69162;DHT22;56269;51.738;21.652;2023-06-10T14:15:44;24.53;58.84
69162;DHT22;56269;51.738;21.652;2023-06-10T14:18:11;24.75;59.03
69162;DHT22;56269;51.738;21.652;2023-06-10T14:20:37;24.98;59.47
69162;DHT22;56269;51.738;21.652;2023-06-10T14:23:03;24.46;60.20
69162;DHT22;56269;51.738;21.652;2023-06-10T14:25:30;24.37;60.44
69162;DHT22;56269;51.738;21.652;2023-06-10T14:27:56;24.24;60.60
69162;DHT22;56269;51.738;21.652;2023-06-10T14:30:23;24.17;60.98
69162;DHT22;56269;51.738;21.652;2023-06-10T14:32:49;24.40;60.42
69162;DHT22;56269;51.738;21.652;2023-06-10T14:35:15;25.15;59.40
69162;DHT22;56269;51.738;21.652;2023-06-10T14:37:42;24.87;60.11
69162;DHT22;56269;51.738;21.652;2023-06-10T14:40:08;25.01;60.27
69162;DHT22;56269;51.738;21.652;2023-06-10T14:42:35;24.74;61.06
69162;DHT22;56269;51.738;21.652;2023-06-10T14:45:04;25.12;60.80
69162;DHT22;56269;51.738;21.652;2023-06-10T14:47:31;24.36;61.70
69162;DHT22;56269;51.738;21.652;2023-06-10T14:49:57;25.29;60.76
69162;DHT22;56269;51.738;21.652;2023-06-10T14:52:24;24.84;60.77
69162;DHT22;56269;51.738;21.652;2023-06-10T14:54:49;24.84;60.86
69162;DHT22;56269;51.738;21.652;2023-06-10T14:57:16;24.96;61.05
69162;DHT22;56269;51.738;21.652;2023-06-10T14:59:42;25.14;60.59
69162;DHT22;56269;51.738;21.652;2023-06-10T15:02:09;24.18;62.60
69162;DHT22;56269;51.738;21.652;2023-06-10T15:04:35;24.47;62.69
69162;DHT22;56269;51.738;21.652;2023-06-10T15:07:01;25.18;59.72
69162;DHT22;56269;51.738;21.652;2023-06-10T15:09:27;25.01;61.48
69162;DHT22;56269;51.738;21.652;2023-06-10T15:11:54;24.30;63.23
69162;DHT22;56269;51.738;21.652;2023-06-10T15:14:22;23.73;63.70
69162;DHT22;56269;51.738;21.652;2023-06-10T15:16:48;23.32;65.50
69162;DHT22;56269;51.738;21.652;2023-06-10T15:19:14;22.95;65.45
69162;DHT22;56269;51.738;21.652;2023-06-10T15:21:42;22.77;63.88
69162;DHT22;56269;51.738;21.652;2023-06-10T15:24:08;22.67;64.17
69162;DHT22;56269;51.738;21.652;2023-06-10T15:26:35;23.19;64.42
69162;DHT22;56269;51.738;21.652;2023-06-10T15:29:01;22.88;63.31
69162;DHT22;56269;51.738;21.652;2023-06-10T15:31:30;23.37;61.91
69162;DHT22;56269;51.738;21.652;2023-06-10T15:34:00;24.41;59.08
69162;DHT22;56269;51.738;21.652;2023-06-10T15:36:27;25.02;56.24